Time;durP1;ratioP1;P1;durP2;ratioP2;P2;SDS_P1;SDS_P2;PMS_P1;PMS_P2;Temp;Humidity;BMP_temperature;BMP_pressure;BME280_temperature;BME280_humidity;BME280_pressure;Samples;Min_cycle;Max_cycle;Signal;HPM_P1;HPM_P2
2022/07/24 00:02:21;;;;;;;2.70;1.65;;;;;;;24.38;48.13;101887.09;5064953;28;20027;-58
2022/07/24 00:04:46;;;;;;;2.40;1.75;;;;;;;24.37;47.82;101888.97;5064963;28;20044;-60
2022/07/24 00:07:12;;;;;;;1.92;1.52;;;;;;;24.37;47.80;101888.97;5064007;28;20099;-60
2022/07/24 00:09:37;;;;;;;2.38;1.70;;;;;;;24.36;47.71;101887.25;5065300;28;20029;-60
2022/07/24 00:12:03;;;;;;;2.53;1.63;;;;;;;24.36;47.51;101879.09;5085601;28;20059;-59
2022/07/24 00:14:28;;;;;;;2.20;1.73;;;;;;;24.36;47.44;101880.97;5088835;28;20118;-59
2022/07/24 00:16:53;;;;;;;2.35;1.88;;;;;;;24.36;47.10;101883.69;5089081;28;20024;-59
2022/07/24 00:19:19;;;;;;;1.88;1.67;;;;;;;24.35;46.91;101882.03;5089252;28;20035;-59
2022/07/24 00:21:44;;;;;;;1.95;1.60;;;;;;;24.34;46.99;101877.59;5089071;28;20047;-59
2022/07/24 00:24:09;;;;;;;3.08;2.05;;;;;;;24.34;46.41;101883.03;5088861;28;20028;-58
2022/07/24 00:26:35;;;;;;;2.05;1.73;;;;;;;24.35;46.62;101884.75;5089135;28;20032;-59
2022/07/24 00:29:00;;;;;;;2.30;1.95;;;;;;;24.23;46.67;101870.72;5088544;28;20078;-59
2022/07/24 00:31:26;;;;;;;2.83;1.95;;;;;;;24.33;46.36;101884.91;5089379;28;20032;-59
2022/07/24 00:33:51;;;;;;;2.58;1.60;;;;;;;24.16;46.34;101853.44;5088621;28;20078;-59
2022/07/24 00:36:16;;;;;;;2.08;1.67;;;;;;;24.31;46.35;101872.53;5088922;28;20084;-58
2022/07/24 00:38:41;;;;;;;2.28;1.98;;;;;;;24.26;45.99;101864.94;5088715;28;20040;-59
2022/07/24 00:41:07;;;;;;;2.45;1.77;;;;;;;24.32;46.14;101885.94;5088731;28;20035;-59
2022/07/24 00:43:33;;;;;;;2.58;2.00;;;;;;;24.31;46.26;101869.81;5087729;28;20135;-60
2022/07/24 00:45:58;;;;;;;2.42;1.77;;;;;;;24.33;46.09;101878.63;5088861;28;20024;-60
2022/07/24 00:48:23;;;;;;;2.72;1.90;;;;;;;24.33;46.32;101878.63;5088860;28;20723;-60
2022/07/24 00:50:49;;;;;;;3.88;1.92;;;;;;;24.31;46.06;101870.66;5088774;28;20035;-59
2022/07/24 00:53:15;;;;;;;2.33;2.13;;;;;;;24.32;46.09;101879.66;5088147;28;20028;-59
2022/07/24 00:55:41;;;;;;;2.33;1.98;;;;;;;24.31;46.10;101870.66;5070441;28;20046;-59
2022/07/24 00:58:07;;;;;;;1.88;1.63;;;;;;;24.29;46.33;101867.25;5087734;28;20113;-59
2022/07/24 01:00:32;;;;;;;2.47;1.80;;;;;;;24.28;46.09;101872.88;5088747;28;20016;-59
2022/07/24 01:02:57;;;;;;;1.90;1.75;;;;;;;24.31;46.02;101875.25;5075533;28;20021;-60
2022/07/24 01:05:22;;;;;;;2.70;2.05;;;;;;;24.30;45.89;101888.00;5084069;28;20056;-60
2022/07/24 01:07:48;;;;;;;2.60;1.85;;;;;;;24.30;46.05;101879.84;5069912;28;20023;-59
2022/07/24 01:10:13;;;;;;;2.08;1.80;;;;;;;24.23;45.84;101865.28;5070938;28;20079;-59
2022/07/24 01:12:39;;;;;;;2.03;1.73;;;;;;;24.30;45.99;101865.38;5087383;28;20028;-59
2022/07/24 01:15:06;;;;;;;2.53;1.80;;;;;;;24.30;45.80;101865.38;5088018;28;20013;-59
2022/07/24 01:17:36;;;;;;;2.95;1.92;;;;;;;24.22;45.90;101850.00;5087986;28;20467;-59
2022/07/24 01:20:04;;;;;;;4.57;1.98;;;;;;;24.29;45.48;101866.41;5074987;28;20051;-59
2022/07/24 01:22:29;;;;;;;2.03;1.83;;;;;;;24.28;45.68;101860.13;5067688;28;20040;-60
2022/07/24 01:24:55;;;;;;;2.35;1.75;;;;;;;24.27;45.75;101863.91;5066702;28;20021;-60
2022/07/24 01:27:21;;;;;;;1.60;1.50;;;;;;;24.26;45.85;101855.94;5067909;28;20053;-59
2022/07/24 01:29:47;;;;;;;1.60;1.35;;;;;;;24.22;45.64;101846.44;5067408;28;20025;-58
2022/07/24 01:32:12;;;;;;;2.80;1.85;;;;;;;24.27;45.66;101850.31;5066802;28;20033;-59
2022/07/24 01:34:37;;;;;;;3.53;1.98;;;;;;;24.02;45.57;101827.06;5067592;28;20052;-59
2022/07/24 01:37:02;;;;;;;2.10;1.90;;;;;;;24.21;45.72;101851.00;5080455;28;20048;-59
2022/07/24 01:39:28;;;;;;;1.85;1.60;;;;;;;24.24;45.68;101852.53;5087729;28;20035;-58
2022/07/24 01:41:53;;;;;;;2.50;1.73;;;;;;;24.17;45.60;101845.13;5086858;28;20066;-58
2022/07/24 01:44:18;;;;;;;3.55;2.20;;;;;;;24.24;45.56;101850.66;5087006;28;20056;-58
2022/07/24 01:46:44;;;;;;;2.30;1.83;;;;;;;24.23;45.64;101851.69;5087450;28;20032;-59
2022/07/24 01:49:09;;;;;;;2.65;2.10;;;;;;;24.23;45.70;101850.84;5086098;28;20024;-60
2022/07/24 01:51:34;;;;;;;2.40;1.95;;;;;;;24.23;45.78;101839.97;5087449;28;20058;-60
2022/07/24 01:54:02;;;;;;;1.75;1.55;;;;;;;24.22;45.64;101833.72;5087215;28;20016;-59
2022/07/24 01:56:28;;;;;;;2.05;1.65;;;;;;;24.23;45.63;101840.81;5087508;28;20024;-58
2022/07/24 01:58:53;;;;;;;2.45;1.70;;;;;;;24.21;45.55;101837.41;5086685;28;20327;-59
2022/07/24 02:01:18;;;;;;;2.30;1.70;;;;;;;24.22;45.65;101830.16;5087481;28;20035;-60
2022/07/24 02:03:44;;;;;;;3.20;1.75;;;;;;;24.22;45.60;101830.16;5086954;28;20099;-59
2022/07/24 02:06:09;;;;;;;1.83;1.73;;;;;;;24.20;45.57;101825.72;5087163;28;20039;-58
2022/07/24 02:08:34;;;;;;;2.80;1.90;;;;;;;24.20;45.31;101825.72;5086952;28;20047;-59
2022/07/24 02:10:59;;;;;;;2.10;1.63;;;;;;;24.20;45.60;101833.88;5075769;28;20067;-59
2022/07/24 02:13:25;;;;;;;1.88;1.50;;;;;;;24.20;45.54;101827.59;5066348;28;20017;-60
2022/07/24 02:15:51;;;;;;;2.30;1.83;;;;;;;24.19;45.45;101815.88;5067294;28;20032;-59
2022/07/24 02:18:16;;;;;;;1.85;1.63;;;;;;;24.19;45.58;101823.19;5066948;28;20425;-59
2022/07/24 02:20:42;;;;;;;2.50;2.00;;;;;;;24.19;45.41;101828.63;5067236;28;20020;-59
2022/07/24 02:23:07;;;;;;;2.35;1.98;;;;;;;24.17;45.37;101817.06;5066466;28;20025;-58
2022/07/24 02:25:32;;;;;;;2.10;1.85;;;;;;;24.01;45.44;101780.03;5066812;28;20498;-59
2022/07/24 02:27:57;;;;;;;2.20;1.80;;;;;;;24.17;45.41;101817.06;5066126;28;20375;-59
2022/07/24 02:30:24;;;;;;;2.50;1.80;;;;;;;24.16;45.59;101813.50;5066606;28;20025;-59
2022/07/24 02:32:50;;;;;;;2.22;1.85;;;;;;;24.16;45.59;101808.09;5066492;28;20074;-59
2022/07/24 02:35:15;;;;;;;2.80;2.03;;;;;;;24.14;45.51;101807.44;5066292;28;20025;-59
2022/07/24 02:37:42;;;;;;;3.45;2.17;;;;;;;24.16;45.48;101807.25;5066120;28;20154;-59
2022/07/24 02:40:09;;;;;;;2.28;2.00;;;;;;;24.15;45.55;101814.56;5066520;28;20466;-59
2022/07/24 02:42:35;;;;;;;3.85;2.40;;;;;;;24.15;45.37;101808.28;5065414;28;20152;-60
2022/07/24 02:45:00;;;;;;;2.45;2.13;;;;;;;24.14;45.55;101806.59;5065979;28;20040;-60
2022/07/24 02:47:25;;;;;;;2.30;1.80;;;;;;;24.13;45.73;101805.75;5066233;28;20043;-60
2022/07/24 02:49:51;;;;;;;2.53;1.77;;;;;;;24.13;45.30;101803.03;5066252;28;20482;-59
2022/07/24 02:52:16;;;;;;;2.03;1.63;;;;;;;24.13;45.40;101807.63;5066087;28;20024;-59
2022/07/24 02:54:41;;;;;;;2.85;1.83;;;;;;;24.13;45.55;101807.63;5065880;28;20021;-59
2022/07/24 02:57:06;;;;;;;2.88;1.90;;;;;;;24.12;45.54;101805.91;5065924;28;20025;-57
2022/07/24 02:59:32;;;;;;;3.20;2.20;;;;;;;24.12;45.45;101804.03;5065572;28;20139;-58
2022/07/24 03:01:57;;;;;;;3.22;1.95;;;;;;;24.11;45.54;101798.78;5064832;28;20032;-59
2022/07/24 03:04:23;;;;;;;2.40;1.80;;;;;;;24.08;45.49;101791.84;5064375;28;20032;-60
2022/07/24 03:06:48;;;;;;;3.42;2.25;;;;;;;24.10;45.38;101791.69;5065856;28;20485;-59
2022/07/24 03:09:13;;;;;;;2.17;1.92;;;;;;;24.12;45.51;101795.03;5065964;28;20097;-59
2022/07/24 03:11:38;;;;;;;2.72;1.85;;;;;;;24.05;45.47;101780.53;5081974;28;20063;-59
2022/07/24 03:14:04;;;;;;;2.95;2.10;;;;;;;24.11;45.42;101788.78;5085206;28;20019;-59
2022/07/24 03:16:29;;;;;;;2.42;2.10;;;;;;;24.11;45.44;101786.06;5085592;28;20037;-58
2022/07/24 03:18:54;;;;;;;2.30;1.92;;;;;;;24.11;45.39;101790.66;5085605;28;20028;-60
2022/07/24 03:21:19;;;;;;;2.03;1.80;;;;;;;24.07;45.42;101790.16;5085672;28;20035;-59
2022/07/24 03:23:45;;;;;;;3.17;2.38;;;;;;;24.10;45.32;101787.09;5085244;28;20088;-59
2022/07/24 03:26:10;;;;;;;2.45;1.95;;;;;;;24.08;45.35;101777.41;5085567;28;20035;-59
2022/07/24 03:28:35;;;;;;;2.05;1.73;;;;;;;24.10;45.36;101780.81;5084740;28;20024;-59
2022/07/24 03:31:01;;;;;;;3.65;2.65;;;;;;;24.09;45.26;101769.09;5085483;28;20051;-59
2022/07/24 03:33:27;;;;;;;2.75;2.20;;;;;;;24.03;45.27;101761.66;5084066;28;20111;-58
2022/07/24 03:35:52;;;;;;;1.92;1.73;;;;;;;24.08;45.43;101770.09;5084404;28;20462;-59
2022/07/24 03:38:18;;;;;;;2.67;2.08;;;;;;;24.06;45.40;101769.47;5085423;28;20084;-59
2022/07/24 03:40:43;;;;;;;3.70;2.38;;;;;;;24.05;45.42;101766.94;5085301;28;20020;-60
2022/07/24 03:43:08;;;;;;;2.35;1.80;;;;;;;24.08;45.45;101774.69;5084269;28;20045;-59
2022/07/24 03:45:34;;;;;;;2.58;1.98;;;;;;;24.07;45.68;101781.16;5085273;28;20044;-60
2022/07/24 03:47:59;;;;;;;3.97;2.30;;;;;;;24.07;45.26;101770.28;5084793;28;20036;-59
2022/07/24 03:50:24;;;;;;;2.85;2.33;;;;;;;24.06;45.43;101769.47;5085421;28;20473;-58
2022/07/24 03:52:50;;;;;;;4.03;2.45;;;;;;;24.06;45.36;101768.63;5084894;28;20034;-60
2022/07/24 03:55:15;;;;;;;3.03;1.98;;;;;;;24.05;45.31;101764.22;5085346;28;20025;-60
2022/07/24 03:57:40;;;;;;;3.38;2.40;;;;;;;24.03;45.32;101767.09;5083925;28;20082;-59
2022/07/24 04:00:07;;;;;;;2.83;2.25;;;;;;;24.03;45.44;101774.41;5084979;28;20032;-60
2022/07/24 04:02:32;;;;;;;3.13;2.50;;;;;;;23.96;45.50;101763.44;5085277;28;20035;-59
2022/07/24 04:04:57;;;;;;;2.55;2.17;;;;;;;24.04;45.43;101773.38;5084868;28;20025;-60
2022/07/24 04:07:22;;;;;;;3.80;2.55;;;;;;;24.03;45.54;101774.41;5085156;28;20032;-59
2022/07/24 04:09:48;;;;;;;3.15;2.50;;;;;;;24.02;45.45;101773.56;5083650;28;20043;-59
2022/07/24 04:12:13;;;;;;;3.65;2.45;;;;;;;24.01;45.43;101780.03;5063382;28;20025;-58
2022/07/24 04:14:38;;;;;;;2.67;2.00;;;;;;;23.93;45.47;101775.50;5064518;28;20029;-59
2022/07/24 04:17:04;;;;;;;2.55;2.20;;;;;;;24.01;45.33;101788.19;5065106;28;20033;-59
2022/07/24 04:19:29;;;;;;;3.00;2.38;;;;;;;23.98;45.55;101779.53;5064922;28;20061;-58
2022/07/24 04:21:55;;;;;;;2.45;2.08;;;;;;;24.01;45.56;101787.34;5064575;28;20082;-59
2022/07/24 04:24:20;;;;;;;2.40;2.20;;;;;;;24.01;45.52;101790.91;5064531;28;20028;-59
2022/07/24 04:26:46;;;;;;;2.70;2.45;;;;;;;24.01;45.44;101787.34;5064919;28;20037;-60
2022/07/24 04:29:11;;;;;;;2.63;2.42;;;;;;;24.01;45.69;101788.19;5064530;28;20021;-60
2022/07/24 04:31:36;;;;;;;2.80;2.42;;;;;;;24.01;45.75;101792.78;5064966;28;20063;-60
2022/07/24 04:34:01;;;;;;;4.47;2.78;;;;;;;24.01;45.45;101793.63;5064746;28;20013;-60
2022/07/24 04:36:27;;;;;;;2.88;2.30;;;;;;;24.01;45.56;101795.50;5064798;28;20050;-59
2022/07/24 04:38:52;;;;;;;3.58;2.35;;;;;;;24.01;45.58;101803.63;5064445;28;20051;-60
2022/07/24 04:41:17;;;;;;;3.30;2.47;;;;;;;24.00;45.34;101797.38;5064735;28;20021;-60
2022/07/24 04:43:43;;;;;;;3.00;2.20;;;;;;;24.01;45.70;101800.91;5063765;28;20100;-60
2022/07/24 04:46:08;;;;;;;4.72;2.83;;;;;;;24.01;45.38;101803.63;5064880;28;20017;-59
2022/07/24 04:48:33;;;;;;;3.67;2.55;;;;;;;24.00;45.70;101793.78;5064954;28;20029;-59
2022/07/24 04:50:59;;;;;;;3.20;2.53;;;;;;;23.98;45.58;101795.84;5065056;28;20040;-59
2022/07/24 04:53:24;;;;;;;2.72;2.47;;;;;;;23.98;45.54;101791.25;5064237;28;20493;-59
2022/07/24 04:55:49;;;;;;;3.95;2.65;;;;;;;23.97;45.40;101796.88;5063514;28;20033;-59
2022/07/24 04:58:14;;;;;;;3.22;2.33;;;;;;;23.98;45.55;101796.69;5065543;28;20017;-58
2022/07/24 05:00:40;;;;;;;3.17;2.75;;;;;;;23.98;45.57;101790.41;5068303;28;20016;-60
2022/07/24 05:03:05;;;;;;;3.42;2.90;;;;;;;23.98;45.51;101795.84;5067996;28;20021;-60
2022/07/24 05:05:30;;;;;;;2.80;2.58;;;;;;;23.98;45.54;101790.41;5067537;28;20029;-60
2022/07/24 05:07:56;;;;;;;3.13;2.40;;;;;;;23.98;45.35;101790.41;5048915;28;20452;-60
2022/07/24 05:10:21;;;;;;;4.05;3.47;;;;;;;23.98;45.47;101790.41;5059889;28;20020;-59
2022/07/24 05:12:46;;;;;;;3.10;2.80;;;;;;;23.98;45.45;101790.41;5087355;28;20036;-59
2022/07/24 05:15:11;;;;;;;2.83;2.38;;;;;;;23.91;45.55;101779.41;5087516;28;20032;-59
2022/07/24 05:17:37;;;;;;;3.45;2.17;;;;;;;23.93;45.61;101780.09;5087768;28;20062;-59
2022/07/24 05:20:04;;;;;;;2.80;2.42;;;;;;;23.96;45.54;101793.31;5088014;28;20036;-60
2022/07/24 05:22:29;;;;;;;3.30;2.47;;;;;;;23.95;45.54;101789.72;5087738;28;20025;-59
2022/07/24 05:24:54;;;;;;;3.25;2.20;;;;;;;23.95;45.78;101786.16;5087477;28;20023;-59
2022/07/24 05:27:19;;;;;;;3.33;2.38;;;;;;;23.92;45.74;101783.84;5087457;28;20020;-60
2022/07/24 05:29:46;;;;;;;2.80;2.30;;;;;;;23.94;45.73;101790.75;5087128;28;20028;-60
2022/07/24 05:32:11;;;;;;;4.22;2.70;;;;;;;23.91;45.78;101780.25;5087675;28;20025;-59
2022/07/24 05:34:36;;;;;;;3.40;2.50;;;;;;;23.93;45.86;101780.09;5087500;28;20031;-59
2022/07/24 05:37:02;;;;;;;4.20;2.97;;;;;;;23.93;45.65;101772.78;5087599;28;20362;-59
2022/07/24 05:39:27;;;;;;;3.30;2.63;;;;;;;23.95;45.65;101769.88;5087746;28;20029;-58
2022/07/24 05:41:52;;;;;;;3.47;3.17;;;;;;;23.91;45.82;101761.25;5087034;28;20052;-58
2022/07/24 05:44:17;;;;;;;4.40;2.90;;;;;;;23.95;45.71;101772.59;5079128;28;20020;-59
2022/07/24 05:46:43;;;;;;;3.10;2.38;;;;;;;23.93;45.72;101775.50;5072620;28;20029;-59
2022/07/24 05:49:08;;;;;;;4.07;2.80;;;;;;;23.94;45.74;101779.06;5084489;28;20461;-58
2022/07/24 05:51:33;;;;;;;2.90;2.60;;;;;;;23.90;45.80;101780.44;5085421;28;20111;-60
2022/07/24 05:53:58;;;;;;;3.42;2.90;;;;;;;23.94;45.95;101787.22;5066924;28;20028;-59
2022/07/24 05:56:24;;;;;;;3.80;3.03;;;;;;;23.94;45.63;101790.75;5067462;28;20028;-60
2022/07/24 05:58:49;;;;;;;3.63;2.72;;;;;;;23.93;45.87;101789.09;5066280;28;20096;-60
2022/07/24 06:01:14;;;;;;;3.70;3.22;;;;;;;23.92;45.88;101786.56;5078587;28;20378;-59
2022/07/24 06:03:39;;;;;;;2.97;2.67;;;;;;;23.78;45.61;101762.88;5086516;28;20082;-59
2022/07/24 06:06:05;;;;;;;4.88;2.80;;;;;;;23.83;45.71;101772.19;5087207;28;20107;-59
2022/07/24 06:08:30;;;;;;;3.20;2.70;;;;;;;23.93;45.75;101783.66;5087066;28;20033;-59
2022/07/24 06:10:55;;;;;;;3.88;3.00;;;;;;;23.94;45.75;101796.19;5086891;28;20024;-60
2022/07/24 06:13:21;;;;;;;3.17;2.85;;;;;;;23.94;45.95;101789.91;5086005;28;20473;-59
2022/07/24 06:15:46;;;;;;;3.85;3.40;;;;;;;23.85;46.08;101780.97;5087017;28;20035;-59
2022/07/24 06:18:11;;;;;;;4.95;3.00;;;;;;;23.94;45.81;101795.34;5076329;28;20056;-60
2022/07/24 06:20:36;;;;;;;3.85;3.03;;;;;;;23.95;45.85;101797.03;5067014;28;20020;-60
2022/07/24 06:23:02;;;;;;;4.50;2.80;;;;;;;23.95;45.99;101788.88;5066285;28;20035;-60
2022/07/24 06:25:27;;;;;;;5.30;3.13;;;;;;;23.87;45.89;101778.06;5066844;28;20035;-60
2022/07/24 06:27:53;;;;;;;3.85;2.92;;;;;;;23.95;45.95;101792.44;5066332;28;20040;-58
2022/07/24 06:30:23;;;;;;;3.97;2.92;;;;;;;23.95;45.98;101803.31;5066456;28;20094;-59
2022/07/24 06:32:51;;;;;;;4.30;3.63;;;;;;;23.95;45.95;101800.59;5066317;28;20118;-60
2022/07/24 06:35:16;;;;;;;5.57;3.53;;;;;;;23.95;46.15;101805.19;5066687;28;20044;-59
2022/07/24 06:37:42;;;;;;;3.35;3.03;;;;;;;23.94;46.10;101796.19;5066398;28;20055;-58
2022/07/24 06:40:08;;;;;;;4.47;3.30;;;;;;;23.93;45.99;101794.50;5066555;28;20433;-59
2022/07/24 06:42:34;;;;;;;3.25;2.95;;;;;;;23.88;45.99;101785.22;5065915;28;20063;-60
2022/07/24 06:44:59;;;;;;;3.83;2.72;;;;;;;23.97;45.72;101797.72;5065343;28;20393;-60
2022/07/24 06:47:26;;;;;;;3.85;3.45;;;;;;;23.97;46.14;101797.72;5066229;28;20029;-60
2022/07/24 06:49:52;;;;;;;4.22;3.00;;;;;;;23.90;46.29;101784.00;5066087;28;20025;-59
2022/07/24 06:52:17;;;;;;;3.53;2.88;;;;;;;23.95;45.98;101787.00;5074830;28;20043;-58
2022/07/24 06:54:42;;;;;;;3.58;3.28;;;;;;;23.97;46.24;101795.00;5085894;28;20044;-59
2022/07/24 06:57:07;;;;;;;4.20;3.28;;;;;;;23.98;46.68;101790.41;5086190;28;20036;-60
2022/07/24 06:59:33;;;;;;;4.97;3.20;;;;;;;23.98;46.13;101787.69;5085314;28;20058;-60
2022/07/24 07:01:58;;;;;;;3.50;3.15;;;;;;;23.98;46.21;101790.41;5086062;28;20024;-60
2022/07/24 07:04:23;;;;;;;4.25;3.35;;;;;;;23.98;46.39;101788.53;5085681;28;20029;-60
2022/07/24 07:06:49;;;;;;;3.83;3.25;;;;;;;23.99;46.46;101787.50;5085934;28;20043;-60
2022/07/24 07:09:14;;;;;;;3.47;2.90;;;;;;;23.99;46.38;101794.81;5085838;28;20066;-59
2022/07/24 07:11:39;;;;;;;4.70;3.30;;;;;;;24.00;46.50;101793.78;5085575;28;20032;-59
2022/07/24 07:14:04;;;;;;;4.05;2.90;;;;;;;23.99;46.48;101787.50;5085268;28;20092;-59
2022/07/24 07:16:30;;;;;;;3.72;3.10;;;;;;;23.99;46.43;101781.22;5085758;28;20050;-59
2022/07/24 07:18:55;;;;;;;4.50;3.20;;;;;;;23.92;46.46;101773.81;5085346;28;20082;-60
2022/07/24 07:21:20;;;;;;;3.88;2.90;;;;;;;24.01;46.28;101781.91;5085160;28;20111;-59
2022/07/24 07:23:46;;;;;;;4.78;3.03;;;;;;;24.01;46.42;101779.19;5085233;28;20024;-59
2022/07/24 07:26:11;;;;;;;4.43;3.00;;;;;;;23.95;46.42;101769.88;5085789;28;20081;-60
2022/07/24 07:28:36;;;;;;;3.72;3.33;;;;;;;23.81;46.61;101751.66;5085370;28;20088;-60
2022/07/24 07:31:02;;;;;;;4.10;3.25;;;;;;;24.02;46.46;101778.16;5085777;28;20024;-60
2022/07/24 07:33:27;;;;;;;3.22;2.92;;;;;;;24.03;46.42;101779.84;5085169;28;20048;-59
2022/07/24 07:35:53;;;;;;;4.80;3.45;;;;;;;24.04;46.72;101789.66;5085498;28;20629;-59
2022/07/24 07:38:18;;;;;;;4.03;3.15;;;;;;;24.05;46.77;101791.38;5085181;28;20036;-59
2022/07/24 07:40:44;;;;;;;3.55;2.70;;;;;;;24.04;46.89;101789.66;5084076;28;20032;-60
2022/07/24 07:43:09;;;;;;;4.15;3.53;;;;;;;24.05;46.95;101796.81;5084289;28;20046;-58
2022/07/24 07:45:34;;;;;;;3.63;2.95;;;;;;;24.05;46.69;101800.38;5085267;28;20029;-59
2022/07/24 07:47:59;;;;;;;3.47;2.80;;;;;;;24.01;46.66;101790.91;5085249;28;20025;-59
2022/07/24 07:50:25;;;;;;;3.22;2.92;;;;;;;24.07;46.96;101802.91;5085235;28;20040;-59
2022/07/24 07:52:50;;;;;;;3.17;2.83;;;;;;;24.08;46.75;101801.88;5070203;28;20112;-59
2022/07/24 07:55:15;;;;;;;3.45;2.85;;;;;;;24.06;46.38;101793.91;5063937;28;20032;-59
2022/07/24 07:57:43;;;;;;;3.55;3.05;;;;;;;24.07;46.54;101792.03;5064970;28;20891;-59
2022/07/24 08:00:09;;;;;;;3.53;3.22;;;;;;;24.07;46.54;101792.03;5064775;28;20025;-59
2022/07/24 08:02:34;;;;;;;5.15;2.90;;;;;;;24.08;46.62;101782.84;5065330;28;20028;-59
2022/07/24 08:05:00;;;;;;;3.83;2.75;;;;;;;24.08;46.20;101782.84;5064773;28;20032;-59
2022/07/24 08:07:25;;;;;;;3.72;2.55;;;;;;;24.07;46.10;101784.72;5065143;28;20028;-59
2022/07/24 08:09:50;;;;;;;4.05;2.97;;;;;;;24.08;46.52;101789.13;5065057;28;20025;-59
2022/07/24 08:12:15;;;;;;;3.35;2.80;;;;;;;24.09;46.48;101787.28;5064820;28;20059;-59
2022/07/24 08:14:41;;;;;;;3.60;2.80;;;;;;;24.10;46.75;101789.81;5064331;28;20021;-60
2022/07/24 08:17:06;;;;;;;3.35;2.38;;;;;;;24.10;46.75;101784.38;5065235;28;20031;-60
2022/07/24 08:19:31;;;;;;;3.80;2.55;;;;;;;24.12;46.78;101785.00;5064841;28;20635;-59
2022/07/24 08:21:56;;;;;;;2.50;2.30;;;;;;;24.13;46.73;101785.88;5064953;28;20075;-59
2022/07/24 08:24:22;;;;;;;2.97;2.28;;;;;;;24.14;46.84;101777.53;5064452;28;20080;-59
2022/07/24 08:26:47;;;;;;;3.15;2.55;;;;;;;24.15;46.94;101787.38;5064979;28;20029;-59
2022/07/24 08:29:13;;;;;;;3.20;2.42;;;;;;;24.16;46.92;101789.06;5063175;28;20064;-59
2022/07/24 08:31:38;;;;;;;2.95;2.42;;;;;;;24.17;46.67;101788.06;5064779;28;20462;-59
2022/07/24 08:34:04;;;;;;;2.55;2.20;;;;;;;24.12;46.73;101779.59;5067520;28;20021;-60
2022/07/24 08:36:29;;;;;;;3.53;2.67;;;;;;;24.16;46.65;101780.91;5069009;28;20082;-60
2022/07/24 08:38:54;;;;;;;2.97;2.22;;;;;;;24.20;46.67;101784.94;5068802;28;20031;-59
2022/07/24 08:41:20;;;;;;;3.35;2.25;;;;;;;24.17;46.70;101777.19;5068839;28;20080;-60
2022/07/24 08:43:45;;;;;;;2.63;2.25;;;;;;;24.23;46.62;101789.19;5067792;28;20182;-59
2022/07/24 08:46:12;;;;;;;2.33;2.10;;;;;;;24.16;46.65;101774.63;5068682;28;20040;-58
2022/07/24 08:48:42;;;;;;;2.35;2.15;;;;;;;24.24;46.51;101780.00;5067516;28;20024;-59
2022/07/24 08:51:08;;;;;;;2.95;2.65;;;;;;;24.25;46.49;101772.69;5069088;28;20531;-59
2022/07/24 08:53:33;;;;;;;2.55;2.10;;;;;;;24.25;46.47;101778.13;5070485;28;20092;-59
2022/07/24 08:55:59;;;;;;;2.60;2.30;;;;;;;24.27;46.50;101789.69;5088607;28;20032;-59
2022/07/24 08:58:24;;;;;;;2.88;2.53;;;;;;;24.27;46.51;101771.50;5086839;28;20416;-59
2022/07/24 09:00:49;;;;;;;2.83;2.20;;;;;;;24.26;46.34;101758.09;5088188;28;20495;-59
2022/07/24 09:03:14;;;;;;;3.15;2.40;;;;;;;24.30;46.38;101770.25;5087896;28;20070;-59
2022/07/24 09:05:57;;;;;;;2.85;2.55;;;;;;;24.30;46.16;101767.53;5088149;28;20116;-59
2022/07/24 09:08:23;;;;;;;2.55;2.08;;;;;;;24.30;46.46;101768.41;5088277;28;20430;-59
2022/07/24 09:10:58;;;;;;;4.15;2.60;;;;;;;24.32;46.33;101765.50;5088356;28;20023;-59
2022/07/24 09:13:25;;;;;;;2.67;2.25;;;;;;;24.32;46.24;101765.50;5087335;28;20059;-59
2022/07/24 09:15:50;;;;;;;3.47;2.70;;;;;;;24.33;46.20;101764.47;5088216;28;20032;-59
2022/07/24 09:18:33;;;;;;;3.13;2.30;;;;;;;24.33;46.21;101757.16;5087800;28;20024;-59
2022/07/24 09:21:11;;;;;;;2.83;2.50;;;;;;;24.32;46.26;101760.91;5087851;28;20024;-59
2022/07/24 09:23:37;;;;;;;2.60;2.10;;;;;;;24.34;46.19;101763.44;5087596;28;20028;-59
2022/07/24 09:26:02;;;;;;;2.95;2.17;;;;;;;24.35;46.20;101759.72;5087807;28;20035;-59
2022/07/24 09:28:28;;;;;;;2.78;2.35;;;;;;;24.33;46.27;101756.31;5087283;28;20088;-59
2022/07/24 09:30:53;;;;;;;2.97;2.22;;;;;;;24.33;46.32;101750.88;5086524;28;20028;-60
2022/07/24 09:33:21;;;;;;;2.65;2.38;;;;;;;24.36;46.43;101758.66;5087547;28;20060;-58
2022/07/24 09:35:48;;;;;;;2.50;1.95;;;;;;;24.33;46.30;101743.56;5087646;28;20028;-59
2022/07/24 09:38:16;;;;;;;2.10;1.90;;;;;;;24.37;46.13;101752.19;5087636;28;20021;-59
2022/07/24 09:40:45;;;;;;;3.13;2.22;;;;;;;24.37;46.28;101747.63;5087655;28;20021;-59
2022/07/24 09:43:29;;;;;;;2.50;2.22;;;;;;;24.38;46.30;101746.63;5087160;28;20115;-59
2022/07/24 09:46:02;;;;;;;2.30;2.10;;;;;;;24.40;46.18;101743.72;5086434;28;20028;-59
2022/07/24 09:48:30;;;;;;;2.72;2.00;;;;;;;24.39;46.20;101739.31;5087562;28;20092;-59
2022/07/24 09:50:59;;;;;;;2.95;2.25;;;;;;;24.40;46.34;101747.28;5087704;28;20074;-58
2022/07/24 09:53:26;;;;;;;;;;;;;;;24.39;46.27;101733.88;5068004;28;20025;-58
2022/07/24 09:56:23;;;;;;;2.80;2.47;;;;;;;24.41;46.25;101737.25;5067063;28;19919;-59
2022/07/24 09:58:54;;;;;;;2.65;1.92;;;;;;;24.40;46.24;101746.44;5054357;28;20032;-59
2022/07/24 10:01:24;;;;;;;2.45;2.20;;;;;;;24.38;46.33;101737.59;5067362;28;20031;-59
2022/07/24 10:03:51;;;;;;;2.00;1.65;;;;;;;24.39;46.23;101737.44;5066821;28;20055;-59
2022/07/24 10:06:19;;;;;;;2.33;2.08;;;;;;;24.35;46.33;101733.38;5067219;28;20028;-58
2022/07/24 10:08:46;;;;;;;2.47;1.92;;;;;;;24.42;46.25;101736.19;5066965;28;20060;-59
2022/07/24 10:11:13;;;;;;;2.40;2.00;;;;;;;24.41;46.25;101734.53;5067049;28;20065;-59
2022/07/24 10:13:38;;;;;;;2.38;2.03;;;;;;;24.43;46.19;101736.03;5066221;28;20032;-59
2022/07/24 10:16:06;;;;;;;2.72;1.98;;;;;;;24.43;46.22;101736.03;5066826;28;20029;-59
2022/07/24 10:18:51;;;;;;;4.40;1.80;;;;;;;24.44;46.21;101732.28;5066895;28;20435;-59
2022/07/24 10:21:22;;;;;;;3.45;2.40;;;;;;;24.43;46.26;101730.59;5066933;28;20086;-59
2022/07/24 10:23:50;;;;;;;2.50;1.90;;;;;;;24.46;46.30;101731.25;5066516;28;20028;-59
2022/07/24 10:26:26;;;;;;;2.53;1.90;;;;;;;24.47;46.17;101727.50;5066641;28;20029;-59
2022/07/24 10:28:57;;;;;;;2.03;1.75;;;;;;;24.48;46.11;101721.06;5064983;28;20342;-59
2022/07/24 10:31:22;;;;;;;2.08;1.88;;;;;;;24.48;46.20;101723.75;5065652;28;20028;-59
2022/07/24 10:33:51;;;;;;;2.17;1.98;;;;;;;24.49;46.18;101734.44;5065206;28;20025;-59
2022/07/24 10:36:17;;;;;;;;;;;;;;;24.49;46.29;101728.16;5067010;28;20057;-58
2022/07/24 10:38:49;;;;;;;1.98;1.65;;;;;;;24.48;46.24;101732.75;5065142;28;19913;-59
2022/07/24 10:41:23;;;;;;;1.83;1.73;;;;;;;24.48;46.29;101727.31;5065281;28;20424;-59
2022/07/24 10:44:17;;;;;;;2.25;1.80;;;;;;;24.50;46.20;101727.97;5064132;28;20116;-59
2022/07/24 10:46:59;;;;;;;2.83;1.90;;;;;;;24.51;46.21;101717.94;5065106;28;20132;-58
2022/07/24 10:49:50;;;;;;;2.28;1.85;;;;;;;24.52;46.18;101722.38;5066168;28;20028;-59
2022/07/24 10:52:30;;;;;;;1.90;1.75;;;;;;;24.51;46.17;101720.66;5074634;28;20047;-59
2022/07/24 10:55:31;;;;;;;2.15;1.95;;;;;;;24.54;46.34;101717.56;5085986;28;20024;-59
2022/07/24 10:58:00;;;;;;;2.30;2.10;;;;;;;24.53;46.28;101716.72;5085846;28;20024;-59
2022/07/24 11:00:34;;;;;;;2.63;1.80;;;;;;;24.54;46.13;101712.97;5085934;28;20028;-59
2022/07/24 11:02:59;;;;;;;2.45;1.85;;;;;;;24.55;46.44;101711.97;5085845;28;20032;-60
2022/07/24 11:05:35;;;;;;;1.75;1.63;;;;;;;24.56;46.34;101719.09;5085779;28;20024;-59
2022/07/24 11:08:13;;;;;;;2.03;1.50;;;;;;;24.57;46.36;101714.50;5084528;28;20020;-59
2022/07/24 11:10:49;;;;;;;2.17;1.85;;;;;;;24.58;46.31;101711.56;5085870;28;20498;-58
2022/07/24 11:13:32;;;;;;;1.60;1.50;;;;;;;24.59;46.24;101698.81;5084028;28;20028;-59
2022/07/24 11:16:09;;;;;;;2.40;1.90;;;;;;;24.61;46.48;101704.94;5085845;28;20025;-59
2022/07/24 11:18:35;;;;;;;2.30;2.00;;;;;;;24.61;46.23;101702.22;5085604;28;20036;-59
2022/07/24 11:21:00;;;;;;;2.20;1.90;;;;;;;24.63;46.42;101698.25;5085893;28;20028;-59
2022/07/24 11:23:26;;;;;;;1.83;1.70;;;;;;;24.63;46.36;101702.84;5085176;28;20119;-59
2022/07/24 11:26:30;;;;;;;3.15;2.20;;;;;;;24.65;46.52;101695.38;5085964;28;20023;-59